Time;durP1;ratioP1;P1;durP2;ratioP2;P2;SDS_P1;SDS_P2;PMS_P1;PMS_P2;Temp;Humidity;BMP_temperature;BMP_pressure;BME280_temperature;BME280_humidity;BME280_pressure;Samples;Min_cycle;Max_cycle;Signal;HPM_P1;HPM_P2
2021/12/26 00:01:20;;;;;;;9.70;4.57;;;;;;;10.45;55.24;96887.66;4922963;29;20039;-87
2021/12/26 00:03:46;;;;;;;8.25;4.25;;;;;;;10.74;54.77;96904.22;4906172;29;20032;-88
2021/12/26 00:06:22;;;;;;;8.95;5.00;;;;;;;10.70;54.54;96892.06;4922295;29;20476;-89
2021/12/26 00:08:49;;;;;;;4.75;3.00;;;;;;;10.74;54.11;96882.84;4905848;29;20143;-88
2021/12/26 00:11:15;;;;;;;6.90;3.30;;;;;;;10.89;53.38;96881.69;4929382;29;20118;-88
2021/12/26 00:13:41;;;;;;;6.07;3.50;;;;;;;11.04;53.31;96885.09;4925652;29;20468;-87
2021/12/26 00:16:08;;;;;;;5.53;3.20;;;;;;;11.36;52.28;96897.75;4924805;29;20039;-87
2021/12/26 00:18:34;;;;;;;11.30;4.10;;;;;;;11.34;52.53;96889.00;4924584;29;20082;-87
2021/12/26 00:21:00;;;;;;;7.68;4.10;;;;;;;11.28;52.67;96889.47;4925162;29;20094;-88
2021/12/26 00:23:26;;;;;;;8.77;4.57;;;;;;;11.17;53.13;96892.06;4925359;29;20042;-88
2021/12/26 00:25:52;;;;;;;4.88;3.20;;;;;;;11.29;52.58;96904.53;4925071;29;20035;-88
2021/12/26 00:28:17;;;;;;;11.77;5.53;;;;;;;11.29;52.76;96906.34;4941152;29;20073;-87
2021/12/26 00:30:43;;;;;;;11.50;5.85;;;;;;;11.26;53.05;96907.44;4940856;29;20039;-89
2021/12/26 00:33:09;;;;;;;10.18;5.93;;;;;;;11.11;53.05;96892.53;4941617;29;20040;-90
2021/12/26 00:35:35;;;;;;;8.77;4.85;;;;;;;11.03;53.43;96883.38;4926582;29;20042;-89
2021/12/26 00:38:01;;;;;;;6.78;3.90;;;;;;;11.18;52.52;96888.44;4926610;29;20063;-89
2021/12/26 00:40:27;;;;;;;12.80;6.85;;;;;;;11.19;53.25;96900.84;4941965;29;20051;-88
2021/12/26 00:42:55;;;;;;;14.43;7.13;;;;;;;10.89;53.91;96885.25;4941000;29;20042;-88
2021/12/26 00:45:21;;;;;;;12.45;6.45;;;;;;;10.82;54.79;96912.56;4925636;29;20031;-88
2021/12/26 00:47:46;;;;;;;13.02;7.40;;;;;;;10.42;55.35;96876.31;4941210;29;20114;-88
2021/12/26 00:50:15;;;;;;;20.10;9.65;;;;;;;10.29;55.96;96884.34;4925433;29;20496;-88
2021/12/26 00:52:40;;;;;;;14.68;7.43;;;;;;;10.34;56.37;96906.25;4924908;29;20131;-88
2021/12/26 00:55:08;;;;;;;17.17;7.55;;;;;;;10.27;56.49;96916.53;4941907;29;20117;-88
2021/12/26 00:57:34;;;;;;;9.00;5.63;;;;;;;10.28;56.80;96906.69;4942184;29;20027;-86
2021/12/26 00:59:59;;;;;;;12.68;5.95;;;;;;;10.21;57.11;96916.13;4941471;29;20107;-89
2021/12/26 01:02:25;;;;;;;13.32;5.63;;;;;;;10.03;57.55;96901.34;4925635;29;20035;-89
2021/12/26 01:04:51;;;;;;;8.70;4.65;;;;;;;9.84;58.29;96895.59;4925777;29;20106;-88
2021/12/26 01:07:35;;;;;;;8.75;4.15;;;;;;;9.70;59.02;96902.72;4922685;29;20071;-90
2021/12/26 01:10:03;;;;;;;9.38;3.97;;;;;;;9.70;60.51;96920.56;4925477;29;20036;-89
2021/12/26 01:12:30;;;;;;;12.40;5.85;;;;;;;9.23;60.21;96897.06;4941703;29;20109;-88
2021/12/26 01:14:59;;;;;;;9.75;4.93;;;;;;;9.11;60.97;96901.41;4925564;29;20530;-89
2021/12/26 01:17:26;;;;;;;7.15;3.10;;;;;;;9.94;56.83;96897.50;4920074;29;20036;-88
2021/12/26 01:19:54;;;;;;;5.72;2.72;;;;;;;10.27;55.40;96867.59;4906465;29;20031;-88
2021/12/26 01:22:20;;;;;;;7.78;3.47;;;;;;;10.48;55.43;96881.22;4921538;29;20027;-87
2021/12/26 01:24:48;;;;;;;9.18;4.70;;;;;;;10.53;55.52;96874.56;4922056;29;20039;-88
2021/12/26 01:27:14;;;;;;;6.60;4.20;;;;;;;10.67;54.81;96897.63;4922286;29;20043;-89
2021/12/26 01:29:40;;;;;;;6.13;3.70;;;;;;;10.80;54.67;96882.38;4922123;29;20538;-89
2021/12/26 01:32:07;;;;;;;8.85;4.43;;;;;;;10.70;54.84;96887.56;4905209;29;20104;-88
2021/12/26 01:34:33;;;;;;;9.10;4.70;;;;;;;10.64;55.22;96893.34;4922363;29;20031;-90
2021/12/26 01:36:59;;;;;;;7.20;4.65;;;;;;;10.39;55.44;96858.69;4922262;29;20090;-89
2021/12/26 01:39:25;;;;;;;13.27;7.25;;;;;;;10.41;55.53;96869.25;4922193;29;20119;-89
2021/12/26 01:41:51;;;;;;;10.32;5.05;;;;;;;10.49;55.00;96875.75;4907309;29;20054;-88
2021/12/26 01:44:17;;;;;;;18.33;8.98;;;;;;;10.73;54.40;96862.41;4921946;29;20027;-89
2021/12/26 01:46:44;;;;;;;31.20;14.60;;;;;;;10.68;54.67;96848.50;4905596;29;20415;-89
2021/12/26 01:49:12;;;;;;;8.38;4.63;;;;;;;10.70;53.53;96827.88;4920976;29;20068;-88
2021/12/26 01:51:39;;;;;;;12.45;4.47;;;;;;;11.02;52.82;96839.69;4920667;29;20038;-87
2021/12/26 01:54:09;;;;;;;7.72;4.57;;;;;;;11.34;51.95;96856.88;4921565;29;20096;-88
2021/12/26 01:56:35;;;;;;;18.95;7.53;;;;;;;11.48;51.54;96852.25;4922826;29;20042;-87
2021/12/26 01:59:02;;;;;;;25.15;9.88;;;;;;;11.54;51.40;96825.00;4921649;29;20049;-88
2021/12/26 02:01:27;;;;;;;9.80;4.22;;;;;;;11.70;50.83;96831.78;4905684;29;20039;-87
2021/12/26 02:03:54;;;;;;;7.93;3.95;;;;;;;11.61;50.39;96819.06;4921334;29;20031;-88
2021/12/26 02:06:21;;;;;;;6.85;3.95;;;;;;;11.84;50.32;96849.47;4921774;29;20404;-87
2021/12/26 02:08:47;;;;;;;10.10;4.30;;;;;;;11.83;50.10;96837.91;4921346;29;20146;-87
2021/12/26 02:11:13;;;;;;;8.75;4.45;;;;;;;11.89;49.90;96833.88;4921062;29;20032;-88
2021/12/26 02:13:39;;;;;;;6.78;4.10;;;;;;;11.97;49.67;96839.47;4921392;29;20100;-87
2021/12/26 02:16:08;;;;;;;6.35;4.00;;;;;;;11.99;49.82;96834.88;4905688;29;20031;-89
2021/12/26 02:18:34;;;;;;;12.73;6.35;;;;;;;11.90;49.84;96833.75;4905287;29;20036;-88
2021/12/26 02:23:53;;;;;;;6.25;4.00;;;;;;;11.95;49.57;96809.28;4924366;29;20106;-89
2021/12/26 02:29:03;;;;;;;8.82;4.60;;;;;;;11.82;49.76;96811.19;4934732;29;20054;-88
2021/12/26 02:31:28;;;;;;;5.63;3.72;;;;;;;12.14;49.07;96819.38;4939309;29;20027;-88
2021/12/26 02:33:54;;;;;;;8.32;4.07;;;;;;;12.06;48.57;96806.56;4923727;29;20087;-88
2021/12/26 02:36:20;;;;;;;5.32;2.90;;;;;;;12.20;48.94;96809.03;4924179;29;20071;-89
2021/12/26 02:38:47;;;;;;;3.92;2.47;;;;;;;12.21;48.48;96815.25;4924080;29;20098;-88
2021/12/26 02:41:13;;;;;;;5.28;3.25;;;;;;;12.09;48.80;96798.28;4939949;29;20039;-89
2021/12/26 02:43:38;;;;;;;7.25;2.67;;;;;;;12.28;48.77;96833.38;4924844;29;20131;-88
2021/12/26 02:46:07;;;;;;;4.28;2.72;;;;;;;12.21;48.79;96821.44;4924303;29;20042;-88
2021/12/26 02:48:34;;;;;;;8.23;2.92;;;;;;;12.33;48.39;96809.75;4940207;29;20040;-89
2021/12/26 02:51:01;;;;;;;6.65;3.20;;;;;;;12.30;48.25;96809.16;4924115;29;20063;-90
2021/12/26 02:53:27;;;;;;;6.65;3.47;;;;;;;12.16;48.54;96802.19;4923333;29;20134;-89
2021/12/26 02:55:55;;;;;;;4.70;2.45;;;;;;;12.38;48.27;96833.50;4923361;29;20145;-88
2021/12/26 02:58:22;;;;;;;7.70;3.80;;;;;;;12.34;48.55;96843.63;4923855;29;20045;-89
2021/12/26 03:00:54;;;;;;;11.18;5.35;;;;;;;12.01;49.59;96819.50;4940185;29;20387;-89
2021/12/26 03:03:20;;;;;;;11.52;4.97;;;;;;;11.84;49.98;96810.09;4923737;29;20050;-90
2021/12/26 03:05:53;;;;;;;12.90;5.68;;;;;;;11.66;50.80;96818.72;4939143;29;20031;-88
2021/12/26 03:08:19;;;;;;;9.93;4.97;;;;;;;11.57;50.80;96814.06;4923222;29;20062;-89
2021/12/26 03:10:45;;;;;;;11.77;6.43;;;;;;;11.57;51.01;96827.44;4930335;29;20040;-89
2021/12/26 03:13:12;;;;;;;11.50;6.70;;;;;;;11.53;51.10;96828.69;4905185;29;20031;-88
2021/12/26 03:15:40;;;;;;;7.95;4.97;;;;;;;11.42;51.67;96816.09;4904656;29;20393;-87
2021/12/26 03:18:06;;;;;;;10.07;6.15;;;;;;;11.51;51.57;96838.63;4904793;29;20050;-88
2021/12/26 03:20:38;;;;;;;7.85;3.95;;;;;;;11.54;51.07;96830.38;4920748;29;20036;-87
2021/12/26 03:23:04;;;;;;;6.88;4.35;;;;;;;11.55;51.50;96838.28;4905061;29;20098;-89
2021/12/26 03:25:32;;;;;;;12.00;4.75;;;;;;;11.39;51.76;96808.31;4905054;29;20111;-89
2021/12/26 03:27:58;;;;;;;6.20;3.38;;;;;;;11.59;50.98;96826.38;4920901;29;20070;-87
2021/12/26 03:30:27;;;;;;;7.95;3.95;;;;;;;11.56;51.49;96836.47;4904948;29;20472;-88
2021/12/26 03:32:54;;;;;;;8.85;5.05;;;;;;;11.38;51.74;96796.72;4904415;29;20070;-90
2021/12/26 03:35:21;;;;;;;11.30;5.80;;;;;;;11.38;51.49;96820.84;4904667;29;20075;-89
2021/12/26 03:37:46;;;;;;;14.05;6.97;;;;;;;11.33;52.20;96812.31;4905016;29;20063;-91
2021/12/26 03:40:12;;;;;;;11.63;5.90;;;;;;;11.30;52.49;96812.56;4904353;29;20114;-89
2021/12/26 03:42:38;;;;;;;8.75;4.00;;;;;;;11.30;52.49;96825.06;4920402;29;20113;-90
2021/12/26 03:45:05;;;;;;;12.43;5.88;;;;;;;11.13;53.00;96804.97;4921739;29;20035;-90
2021/12/26 03:47:32;;;;;;;15.30;8.15;;;;;;;11.16;52.77;96812.75;4923637;29;20031;-89
2021/12/26 03:49:59;;;;;;;19.98;9.73;;;;;;;11.10;53.34;96815.91;4908282;29;20122;-90
2021/12/26 03:52:25;;;;;;;16.38;8.85;;;;;;;11.11;53.72;96830.97;4907813;29;20031;-89
2021/12/26 03:54:51;;;;;;;15.35;8.15;;;;;;;11.08;53.74;96847.25;4907857;29;20032;-88
2021/12/26 03:57:17;;;;;;;29.83;13.32;;;;;;;10.99;53.80;96839.94;4908359;29;20059;-89
2021/12/26 03:59:43;;;;;;;14.95;7.80;;;;;;;10.88;54.67;96834.53;4907474;29;20038;-89
2021/12/26 04:02:09;;;;;;;11.30;6.10;;;;;;;10.77;54.89;96834.47;4913805;29;20039;-80
2021/12/26 04:04:35;;;;;;;9.80;5.70;;;;;;;10.61;55.35;96856.13;4945057;29;20067;-78
2021/12/26 04:07:01;;;;;;;11.90;5.57;;;;;;;10.45;55.38;96849.34;4928903;29;20478;-80
2021/12/26 04:09:26;;;;;;;11.57;6.35;;;;;;;10.44;56.25;96858.31;4927914;29;20133;-79
2021/12/26 04:11:52;;;;;;;7.25;4.07;;;;;;;10.38;55.63;96848.09;4933592;29;20051;-80
2021/12/26 04:14:18;;;;;;;10.10;4.72;;;;;;;10.36;56.17;96848.22;4919578;29;20554;-78
2021/12/26 04:16:44;;;;;;;14.40;5.93;;;;;;;10.33;56.60;96856.44;4927316;29;20036;-80
2021/12/26 04:19:10;;;;;;;14.32;7.22;;;;;;;10.24;57.04;96851.75;4930978;29;20044;-82
2021/12/26 04:21:36;;;;;;;12.63;6.97;;;;;;;10.20;57.07;96860.97;4929437;29;20400;-79
2021/12/26 04:24:02;;;;;;;12.60;6.63;;;;;;;10.15;56.66;96858.59;4911868;29;20075;-80
2021/12/26 04:26:28;;;;;;;11.52;6.53;;;;;;;10.14;56.88;96856.91;4911218;29;20051;-79
2021/12/26 04:28:54;;;;;;;10.85;6.05;;;;;;;10.18;56.86;96853.03;4915548;29;20431;-78
2021/12/26 04:31:19;;;;;;;16.73;7.78;;;;;;;10.09;57.49;96864.34;4925711;29;20044;-79
2021/12/26 04:33:46;;;;;;;12.18;4.43;;;;;;;10.06;56.81;96843.19;4935015;29;20050;-79
2021/12/26 04:36:13;;;;;;;15.23;6.18;;;;;;;10.05;57.56;96856.66;4926718;29;20045;-80
2021/12/26 04:38:39;;;;;;;18.23;8.82;;;;;;;9.96;58.03;96851.97;4930297;29;20047;-80
2021/12/26 04:41:05;;;;;;;19.52;9.95;;;;;;;9.96;58.69;96863.53;4927641;29;20073;-80
2021/12/26 04:43:34;;;;;;;27.13;12.10;;;;;;;9.89;59.17;96864.06;4929976;29;20416;-79
2021/12/26 04:46:02;;;;;;;26.00;12.43;;;;;;;9.78;59.59;96848.78;4927185;29;20039;-81
2021/12/26 04:48:28;;;;;;;22.95;11.90;;;;;;;9.67;60.10;96857.53;4927382;29;20083;-81
2021/12/26 04:50:54;;;;;;;27.58;14.40;;;;;;;9.66;59.85;96861.16;4929375;29;20043;-78
2021/12/26 04:53:20;;;;;;;36.92;14.18;;;;;;;9.56;60.68;96862.78;4910519;29;20035;-80
2021/12/26 04:55:45;;;;;;;27.27;12.57;;;;;;;9.57;61.21;96869.81;4928509;29;20027;-79
2021/12/26 04:58:11;;;;;;;28.33;13.13;;;;;;;9.50;61.04;96860.53;4912445;29;20108;-80
2021/12/26 05:00:37;;;;;;;31.98;14.13;;;;;;;9.57;61.29;96882.28;4913268;29;20098;-79
2021/12/26 05:03:04;;;;;;;30.55;14.13;;;;;;;9.49;61.52;96882.84;4912007;29;20035;-80
2021/12/26 05:05:30;;;;;;;38.35;15.75;;;;;;;9.47;62.14;96891.91;4927979;29;20419;-81
2021/12/26 05:07:56;;;;;;;30.73;13.38;;;;;;;9.42;61.96;96902.03;4926608;29;20056;-80
2021/12/26 05:10:25;;;;;;;27.05;13.63;;;;;;;9.27;62.20;96887.91;4927818;29;20039;-79
2021/12/26 05:12:51;;;;;;;22.02;10.63;;;;;;;9.27;62.41;96898.59;4918622;29;20133;-78
2021/12/26 05:15:17;;;;;;;16.48;8.30;;;;;;;9.25;62.75;96900.50;4928622;29;20091;-80
2021/12/26 05:17:43;;;;;;;19.80;7.97;;;;;;;9.13;63.37;96896.84;4931512;29;20035;-77
2021/12/26 05:20:10;;;;;;;17.33;8.35;;;;;;;9.10;63.17;96907.75;4915205;29;20495;-78
2021/12/26 05:22:36;;;;;;;14.85;8.02;;;;;;;9.09;64.18;96914.03;4913182;29;20036;-78
2021/12/26 05:25:03;;;;;;;24.27;10.32;;;;;;;9.01;64.34;96916.31;4927893;29;20042;-78
2021/12/26 05:27:29;;;;;;;39.28;19.55;;;;;;;8.99;64.29;96923.56;4930282;29;20027;-77
2021/12/26 05:29:54;;;;;;;48.13;22.90;;;;;;;8.95;64.60;96922.06;4928858;29;20046;-78
2021/12/26 05:32:20;;;;;;;41.05;22.10;;;;;;;8.99;65.25;96920.03;4931044;29;20036;-77
2021/12/26 05:34:45;;;;;;;51.90;27.98;;;;;;;8.90;66.02;96924.19;4927483;29;20043;-78
2021/12/26 05:37:11;;;;;;;48.67;24.80;;;;;;;8.82;66.05;96915.84;4911363;29;20035;-77
2021/12/26 05:39:37;;;;;;;41.22;22.80;;;;;;;8.83;65.96;96906.84;4928878;29;20031;-78
2021/12/26 05:42:02;;;;;;;52.08;25.83;;;;;;;8.89;65.71;96922.47;4909938;29;20043;-78
2021/12/26 05:44:28;;;;;;;36.95;16.10;;;;;;;8.94;64.34;96911.50;4928709;29;20519;-78
2021/12/26 05:46:54;;;;;;;48.70;22.25;;;;;;;9.10;63.74;96914.88;4930506;29;20041;-77
2021/12/26 05:49:19;;;;;;;33.15;17.50;;;;;;;9.29;63.34;96926.00;4909939;29;20035;-78
2021/12/26 05:51:45;;;;;;;26.95;12.57;;;;;;;9.42;62.33;96915.38;4921835;29;20424;-77
2021/12/26 05:54:10;;;;;;;16.92;9.45;;;;;;;9.68;59.81;96917.16;4911307;29;20393;-78
2021/12/26 05:56:36;;;;;;;27.67;14.52;;;;;;;9.94;59.37;96932.22;4920376;29;20108;-79
2021/12/26 05:59:03;;;;;;;9.98;5.22;;;;;;;10.14;57.30;96926.38;4929769;29;20126;-78
2021/12/26 06:01:29;;;;;;;12.25;6.50;;;;;;;10.42;56.75;96930.63;4928469;29;20515;-79
2021/12/26 06:03:55;;;;;;;16.50;8.50;;;;;;;10.59;56.50;96921.38;4910294;29;20053;-79
2021/12/26 06:06:20;;;;;;;17.95;8.80;;;;;;;10.72;55.53;96922.22;4915011;29;20047;-78
2021/12/26 06:08:46;;;;;;;15.73;8.25;;;;;;;10.89;54.99;96935.22;4910411;29;20054;-78
2021/12/26 06:11:11;;;;;;;18.13;9.23;;;;;;;11.08;54.17;96919.53;4924921;29;20046;-79
2021/12/26 06:13:37;;;;;;;20.08;10.43;;;;;;;11.24;53.97;96925.44;4931160;29;20039;-78
2021/12/26 06:16:03;;;;;;;15.75;8.90;;;;;;;11.25;53.70;96924.50;4931070;29;20179;-78
2021/12/26 06:18:29;;;;;;;19.58;10.20;;;;;;;11.24;54.55;96928.13;4923690;29;20431;-78
2021/12/26 06:20:54;;;;;;;9.85;5.60;;;;;;;11.25;53.86;96924.50;4915271;29;20031;-77
2021/12/26 06:23:20;;;;;;;22.60;10.63;;;;;;;11.25;54.45;96920.97;4929857;29;20042;-78
2021/12/26 06:25:45;;;;;;;38.35;20.30;;;;;;;11.23;54.86;96923.72;4907438;29;20035;-78
2021/12/26 06:28:11;;;;;;;19.27;10.48;;;;;;;11.22;55.33;96927.41;4927015;29;20110;-79
2021/12/26 06:30:36;;;;;;;23.60;10.80;;;;;;;11.20;55.02;96918.59;4909423;29;20039;-79
2021/12/26 06:33:02;;;;;;;16.58;10.27;;;;;;;11.16;54.75;96914.47;4929331;29;20055;-78
2021/12/26 06:35:28;;;;;;;25.42;11.65;;;;;;;11.15;55.19;96915.44;4909370;29;20047;-78
2021/12/26 06:37:53;;;;;;;19.17;9.18;;;;;;;11.14;55.29;96918.22;4923793;29;20035;-79
2021/12/26 06:40:19;;;;;;;26.40;9.90;;;;;;;11.09;55.57;96915.88;4911203;29;20412;-77
2021/12/26 06:42:46;;;;;;;17.52;9.45;;;;;;;11.10;56.18;96932.81;4927828;29;20415;-79
2021/12/26 06:45:15;;;;;;;16.95;8.55;;;;;;;10.98;56.73;96913.16;4927669;29;20381;-78
2021/12/26 06:47:45;;;;;;;15.85;8.02;;;;;;;10.99;56.62;96919.34;4925040;29;20106;-78
2021/12/26 06:50:10;;;;;;;11.98;6.95;;;;;;;10.92;55.94;96910.91;4926933;29;20044;-78
2021/12/26 06:52:36;;;;;;;22.77;9.95;;;;;;;10.95;56.49;96918.72;4930881;29;20046;-78
2021/12/26 06:55:01;;;;;;;32.85;16.60;;;;;;;10.91;56.72;96925.28;4909610;29;20059;-79
2021/12/26 06:57:27;;;;;;;25.02;10.82;;;;;;;11.22;55.92;96903.31;4926674;29;20046;-79
2021/12/26 06:59:53;;;;;;;6.63;3.63;;;;;;;11.57;54.78;96894.41;4924494;29;20134;-78
2021/12/26 07:02:18;;;;;;;10.07;4.97;;;;;;;11.79;54.17;96889.16;4911652;29;20118;-77
2021/12/26 07:04:45;;;;;;;12.60;5.10;;;;;;;11.98;53.72;96908.19;4927334;29;20031;-78
2021/12/26 07:07:11;;;;;;;10.65;5.28;;;;;;;12.01;53.77;96899.91;4927906;29;20043;-77
2021/12/26 07:09:36;;;;;;;11.07;5.22;;;;;;;12.16;53.57;96896.03;4929048;29;20042;-79
2021/12/26 07:12:02;;;;;;;14.75;5.30;;;;;;;12.17;53.26;96895.06;4917644;29;20120;-78
2021/12/26 07:14:30;;;;;;;5.93;3.47;;;;;;;12.26;53.00;96896.16;4910501;29;20059;-78
2021/12/26 07:16:56;;;;;;;8.20;5.32;;;;;;;12.34;53.33;96902.63;4908844;29;20475;-78
2021/12/26 07:19:21;;;;;;;11.07;2.75;;;;;;;12.33;53.38;96883.97;4907555;29;20071;-78
2021/12/26 07:21:47;;;;;;;9.45;4.43;;;;;;;12.45;53.61;96897.28;4931615;29;20035;-78
2021/12/26 07:24:12;;;;;;;7.85;4.10;;;;;;;12.48;53.58;96910.44;4915928;29;20035;-78
2021/12/26 07:26:38;;;;;;;7.25;3.97;;;;;;;12.50;53.44;96884.34;4926601;29;20046;-77
2021/12/26 07:29:03;;;;;;;8.95;5.85;;;;;;;12.54;53.61;96898.34;4930342;29;20039;-77
2021/12/26 07:31:29;;;;;;;7.47;4.45;;;;;;;12.60;53.67;96897.00;4933658;29;20507;-78
2021/12/26 07:33:55;;;;;;;10.98;4.35;;;;;;;12.59;53.44;96887.25;4930610;29;20492;-78
2021/12/26 07:36:20;;;;;;;16.92;6.78;;;;;;;12.70;53.20;96897.97;4913671;29;20043;-77
2021/12/26 07:38:46;;;;;;;8.18;3.88;;;;;;;12.70;53.08;96895.31;4918365;29;20035;-89
2021/12/26 07:41:12;;;;;;;12.35;4.88;;;;;;;12.69;53.03;96877.47;4916561;29;20035;-88
2021/12/26 07:43:37;;;;;;;15.85;5.93;;;;;;;12.73;52.69;96903.97;4914612;29;20040;-88
2021/12/26 07:46:03;;;;;;;9.88;5.20;;;;;;;12.76;52.87;96897.47;4910461;29;20038;-91
2021/12/26 07:48:29;;;;;;;11.85;4.60;;;;;;;12.70;52.68;96879.19;4927509;29;20031;-91
2021/12/26 07:50:55;;;;;;;7.60;4.07;;;;;;;12.73;52.70;96876.25;4931255;29;20517;-86
2021/12/26 07:53:20;;;;;;;9.18;4.22;;;;;;;12.80;52.33;96872.09;4913045;29;20027;-89
2021/12/26 07:55:46;;;;;;;16.55;5.68;;;;;;;12.96;52.01;96880.59;4922143;29;20042;-87
2021/12/26 07:58:13;;;;;;;10.20;4.85;;;;;;;12.99;52.08;96877.66;4921190;29;20035;-88
2021/12/26 08:00:39;;;;;;;19.17;7.10;;;;;;;13.05;51.92;96882.53;4914484;29;20054;-93
2021/12/26 08:03:05;;;;;;;11.00;5.93;;;;;;;12.99;51.81;96888.41;4940141;29;20035;-93
2021/12/26 08:05:31;;;;;;;5.95;3.30;;;;;;;12.94;51.38;96863.78;4926806;29;20087;-88
2021/12/26 08:07:58;;;;;;;8.55;4.88;;;;;;;13.31;51.44;96905.44;4936851;29;20050;-91
2021/12/26 08:10:23;;;;;;;11.00;5.13;;;;;;;13.20;50.97;96873.22;4943431;29;20495;-89
2021/12/26 08:12:59;;;;;;;10.73;5.80;;;;;;;13.26;51.05;96874.56;4928022;29;20027;-90
2021/12/26 08:15:25;;;;;;;11.25;5.68;;;;;;;13.43;50.67;96899.03;4931122;29;20020;-90
2021/12/26 08:17:51;;;;;;;9.55;3.60;;;;;;;13.27;50.58;96847.56;4944321;29;20186;-89
2021/12/26 08:20:16;;;;;;;8.98;4.43;;;;;;;13.33;50.16;96849.75;4927650;29;20035;-91
2021/12/26 08:22:42;;;;;;;14.68;5.35;;;;;;;13.42;50.11;96848.09;4929917;29;20044;-90
2021/12/26 08:25:08;;;;;;;8.38;4.70;;;;;;;13.43;50.30;96850.69;4924481;29;20039;-80
2021/12/26 08:27:34;;;;;;;5.70;3.13;;;;;;;13.58;50.12;96870.88;4912128;29;20480;-83
2021/12/26 08:30:01;;;;;;;9.45;5.15;;;;;;;13.52;49.96;96854.41;4926446;29;20126;-87
2021/12/26 08:32:28;;;;;;;9.55;4.97;;;;;;;13.52;50.20;96857.09;4926522;29;20071;-90
2021/12/26 08:34:54;;;;;;;8.43;4.40;;;;;;;13.64;49.92;96864.13;4926536;29;20043;-93
2021/12/26 08:37:20;;;;;;;23.63;10.55;;;;;;;13.52;49.99;96840.97;4950174;29;20066;-93
2021/12/26 08:39:47;;;;;;;14.48;4.05;;;;;;;13.55;50.11;96863.06;4925530;29;20039;-90
2021/12/26 08:42:13;;;;;;;20.40;11.25;;;;;;;13.62;50.01;96852.66;4940106;29;20048;-92
2021/12/26 08:44:40;;;;;;;10.90;5.10;;;;;;;13.61;50.21;96863.53;4931980;29;20033;-91
2021/12/26 08:47:07;;;;;;;32.75;17.00;;;;;;;13.38;50.20;96834.06;4944484;29;20141;-87
2021/12/26 08:49:33;;;;;;;50.10;23.17;;;;;;;13.50;49.90;96833.03;4924809;29;20130;-86
2021/12/26 08:51:59;;;;;;;88.10;45.03;;;;;;;13.70;49.89;96868.97;4921259;29;20074;-86
2021/12/26 08:54:26;;;;;;;26.38;15.05;;;;;;;13.56;49.84;96840.59;4942088;29;20571;-78
2021/12/26 08:56:53;;;;;;;22.17;8.93;;;;;;;13.69;49.69;96828.81;4931567;29;20587;-82
2021/12/26 08:59:19;;;;;;;17.17;6.75;;;;;;;13.71;49.83;96842.94;4926675;29;20419;-83
2021/12/26 09:01:46;;;;;;;10.55;5.03;;;;;;;13.69;49.89;96851.13;4929326;29;20138;-81
2021/12/26 09:04:12;;;;;;;14.23;8.32;;;;;;;13.70;49.32;96835.88;4927515;29;20039;-83
2021/12/26 09:06:37;;;;;;;13.60;4.25;;;;;;;13.72;49.50;96829.38;4917373;29;20074;-84
2021/12/26 09:09:03;;;;;;;9.05;5.78;;;;;;;13.64;49.62;96815.75;4921261;29;20047;-85
2021/12/26 09:11:29;;;;;;;8.43;4.93;;;;;;;13.73;49.51;96833.75;4918673;29;20099;-85
2021/12/26 09:13:55;;;;;;;11.00;5.07;;;;;;;13.70;49.63;96835.88;4928852;29;20566;-83
2021/12/26 09:16:21;;;;;;;8.80;4.78;;;;;;;13.73;49.52;96836.44;4910423;29;20501;-82
2021/12/26 09:18:47;;;;;;;9.25;4.13;;;;;;;13.68;49.38;96821.72;4931438;29;20086;-80
2021/12/26 09:21:12;;;;;;;8.80;4.80;;;;;;;13.70;49.36;96833.16;4918299;29;20046;-78
2021/12/26 09:23:38;;;;;;;8.85;4.07;;;;;;;13.72;50.00;96833.91;4928703;29;20040;-84
2021/12/26 09:26:03;;;;;;;15.43;7.22;;;;;;;13.81;49.47;96844.69;4926983;29;20074;-81
2021/12/26 09:28:29;;;;;;;9.40;3.88;;;;;;;13.80;49.68;96828.72;4920613;29;20039;-82
2021/12/26 09:30:55;;;;;;;5.80;3.33;;;;;;;13.78;49.89;96839.59;4915090;29;20142;-82
2021/12/26 09:33:21;;;;;;;7.15;3.85;;;;;;;13.77;49.30;96850.50;4912408;29;20047;-80
2021/12/26 09:35:49;;;;;;;5.85;3.58;;;;;;;13.81;49.28;96865.38;4929006;29;20554;-91
2021/12/26 09:38:14;;;;;;;16.58;9.55;;;;;;;13.70;50.94;96838.53;4922271;29;20050;-90
2021/12/26 09:40:40;;;;;;;17.25;7.55;;;;;;;13.77;50.16;96853.19;4938556;29;20427;-90
2021/12/26 09:43:06;;;;;;;9.88;4.20;;;;;;;13.70;49.91;96817.91;4906199;29;20040;-92
2021/12/26 09:45:32;;;;;;;8.82;4.45;;;;;;;13.77;49.63;96845.97;4922791;29;20068;-91
2021/12/26 09:47:57;;;;;;;6.75;3.88;;;;;;;13.63;50.01;96818.59;4922410;29;20106;-89
2021/12/26 09:50:23;;;;;;;5.82;3.45;;;;;;;13.65;49.68;96820.16;4918714;29;20039;-90
2021/12/26 09:52:52;;;;;;;11.98;5.45;;;;;;;13.55;50.37;96833.50;4932240;29;20046;-91
2021/12/26 09:55:18;;;;;;;12.93;6.05;;;;;;;13.63;50.47;96829.34;4939363;29;20036;-91
2021/12/26 09:57:45;;;;;;;8.05;4.55;;;;;;;13.67;49.63;96826.22;4940838;29;20038;-89
2021/12/26 10:00:26;;;;;;;11.13;4.95;;;;;;;13.78;50.06;96825.31;4924455;29;20039;-89
2021/12/26 10:03:34;;;;;;;11.13;5.78;;;;;;;13.94;49.38;96833.75;4939922;29;20459;-91
2021/12/26 10:06:17;;;;;;;12.80;5.88;;;;;;;13.99;49.19;96842.28;4851139;29;20048;-91
2021/12/26 10:09:01;;;;;;;14.68;7.70;;;;;;;14.02;50.28;96859.00;4922606;29;20051;-89
2021/12/26 10:11:29;;;;;;;21.88;11.82;;;;;;;14.15;49.96;96872.22;4939812;29;20050;-91
2021/12/26 10:14:08;;;;;;;21.42;10.82;;;;;;;14.06;49.88;96855.03;4921937;29;20062;-91
2021/12/26 10:16:39;;;;;;;13.38;6.88;;;;;;;14.19;50.69;96860.22;4932418;29;20039;-90
2021/12/26 10:19:06;;;;;;;10.90;5.53;;;;;;;14.35;49.46;96860.59;4937935;29;20039;-89
2021/12/26 10:21:36;;;;;;;16.95;7.97;;;;;;;14.48;49.95;96855.84;4923336;29;20457;-89
2021/12/26 10:24:11;;;;;;;16.48;8.32;;;;;;;14.33;49.63;96851.84;4936196;29;20051;-89
2021/12/26 10:26:39;;;;;;;15.15;8.57;;;;;;;14.26;50.15;96856.00;4912263;29;20040;-91
2021/12/26 10:29:26;;;;;;;21.35;9.68;;;;;;;14.52;49.55;96851.88;4927673;29;20032;-89
2021/12/26 10:32:05;;;;;;;22.50;10.55;;;;;;;14.58;49.11;96828.97;4923867;29;20040;-88
2021/12/26 10:34:38;;;;;;;24.70;9.95;;;;;;;14.68;49.08;96826.28;4950968;29;20143;-90
2021/12/26 10:37:14;;;;;;;22.92;9.98;;;;;;;14.84;50.09;96829.31;4939742;29;20081;-89
2021/12/26 10:39:48;;;;;;;17.13;10.05;;;;;;;15.04;48.48;96825.66;4926969;29;20437;-90
2021/12/26 10:42:17;;;;;;;23.40;12.73;;;;;;;15.33;47.97;96820.28;4926717;29;20540;-90
2021/12/26 10:44:50;;;;;;;18.10;7.78;;;;;;;15.34;47.40;96795.03;4936180;29;20566;-90
2021/12/26 10:47:21;;;;;;;33.10;18.20;;;;;;;15.69;48.17;96808.78;4940244;29;20046;-89
2021/12/26 10:50:15;;;;;;;14.85;8.27;;;;;;;15.81;46.89;96813.00;4930558;29;20534;-90
2021/12/26 10:53:05;;;;;;;28.10;12.45;;;;;;;15.59;48.90;96821.44;4943122;29;20525;-89
2021/12/26 10:55:39;;;;;;;29.35;13.50;;;;;;;15.65;48.13;96827.13;4933102;29;20046;-89
2021/12/26 10:58:21;;;;;;;45.55;18.13;;;;;;;16.06;48.57;96801.59;4934823;29;20040;-90
2021/12/26 11:02:01;;;;;;;28.90;11.93;;;;;;;15.98;46.59;96760.16;4942195;29;20040;-90
2021/12/26 11:04:27;;;;;;;31.40;17.20;;;;;;;16.08;46.00;96805.00;4825963;29;20076;-91
2021/12/26 11:07:10;;;;;;;53.58;18.90;;;;;;;15.78;47.58;96804.38;4938637;29;20070;-88
2021/12/26 11:09:36;;;;;;;26.40;11.88;;;;;;;15.59;46.33;96741.44;4919779;29;20080;-89
2021/12/26 11:12:11;;;;;;;9.55;5.03;;;;;;;16.52;44.17;96759.38;4922681;29;20023;-88
2021/12/26 11:15:00;;;;;;;11.90;5.40;;;;;;;17.53;42.13;96768.00;4932249;29;20050;-88
2021/12/26 11:17:44;;;;;;;17.30;8.68;;;;;;;17.61;42.12;96742.88;4919478;29;20035;-88
2021/12/26 11:20:52;;;;;;;25.20;14.55;;;;;;;17.55;42.12;96733.56;4942278;29;20046;-88
2021/12/26 11:23:52;;;;;;;15.20;8.80;;;;;;;18.15;41.30;96788.56;4933186;29;20078;-90
2021/12/26 11:26:24;;;;;;;10.20;5.47;;;;;;;17.90;41.35;96761.53;4937604;29;20043;-89
2021/12/26 11:29:02;;;;;;;7.80;4.63;;;;;;;17.75;41.36;96737.75;4922047;29;20043;-91
2021/12/26 11:31:30;;;;;;;17.13;8.57;;;;;;;17.58;41.70;96768.41;4924521;29;20058;-90
2021/12/26 11:34:23;;;;;;;12.63;6.05;;;;;;;17.81;41.80;96807.44;4914772;29;20054;-91
2021/12/26 11:36:51;;;;;;;17.98;9.00;;;;;;;17.75;41.50;96775.63;4922388;29;20110;-92